Time;durP1;ratioP1;P1;durP2;ratioP2;P2;SDS_P1;SDS_P2;PMS_P1;PMS_P2;Temp;Humidity;BMP_temperature;BMP_pressure;BME280_temperature;BME280_humidity;BME280_pressure;Samples;Min_cycle;Max_cycle;Signal;HPM_P1;HPM_P2
2023/03/12 00:02:20;;;;;;;7.03;2.30;;;14.80;99.90;;;;;;5002317;28;21040;-72
2023/03/12 00:04:47;;;;;;;9.48;2.20;;;14.80;99.90;;;;;;5002915;28;20415;-73
2023/03/12 00:07:13;;;;;;;7.30;2.23;;;14.70;99.90;;;;;;5000856;28;20505;-73
2023/03/12 00:09:39;;;;;;;11.07;2.38;;;14.70;99.90;;;;;;5020122;28;20461;-73
2023/03/12 00:12:06;;;;;;;9.13;2.10;;;14.70;99.90;;;;;;5001725;28;21095;-73
2023/03/12 00:14:33;;;;;;;10.80;2.22;;;14.70;99.90;;;;;;5000623;28;20403;-73
2023/03/12 00:16:59;;;;;;;11.93;2.38;;;14.70;99.90;;;;;;5018266;28;20420;-73
2023/03/12 00:19:26;;;;;;;8.68;2.15;;;14.80;99.90;;;;;;5020235;28;20422;-73
2023/03/12 00:21:52;;;;;;;7.93;2.08;;;14.80;99.90;;;;;;5002113;28;20530;-73
2023/03/12 00:24:19;;;;;;;7.82;2.28;;;14.80;99.90;;;;;;5001322;28;20848;-73
2023/03/12 00:26:46;;;;;;;8.80;1.85;;;14.80;99.90;;;;;;5015260;28;20411;-73
2023/03/12 00:29:12;;;;;;;7.57;1.97;;;14.80;99.90;;;;;;5018759;28;20942;-73
2023/03/12 00:31:38;;;;;;;8.48;2.03;;;14.80;99.90;;;;;;5001324;28;20423;-73
2023/03/12 00:34:05;;;;;;;6.97;1.90;;;14.90;99.90;;;;;;5002051;28;20418;-74
2023/03/12 00:36:32;;;;;;;7.50;2.10;;;14.90;99.90;;;;;;4999987;28;20534;-73
2023/03/12 00:39:00;;;;;;;6.00;2.10;;;14.90;99.90;;;;;;5016293;28;20460;-73
2023/03/12 00:41:28;;;;;;;7.32;2.00;;;15.00;99.90;;;;;;5019181;28;20493;-73
2023/03/12 00:43:54;;;;;;;6.15;1.88;;;14.90;99.90;;;;;;5019824;28;20414;-73
2023/03/12 00:46:21;;;;;;;7.68;2.13;;;15.00;99.90;;;;;;5000704;28;20422;-73
2023/03/12 00:48:47;;;;;;;4.90;1.80;;;14.90;99.90;;;;;;5018770;28;20795;-73
2023/03/12 00:51:14;;;;;;;6.60;1.63;;;14.90;99.90;;;;;;4996988;28;21305;-73
2023/03/12 00:53:40;;;;;;;5.88;2.20;;;14.90;99.90;;;;;;5019737;28;20913;-73
2023/03/12 00:56:07;;;;;;;6.18;1.83;;;14.90;99.90;;;;;;5018586;28;20553;-73
2023/03/12 00:58:33;;;;;;;6.68;1.75;;;14.90;99.90;;;;;;4999047;28;21003;-73
2023/03/12 01:00:59;;;;;;;7.35;1.80;;;14.90;99.90;;;;;;5017664;28;20417;-73
2023/03/12 01:03:25;;;;;;;4.25;1.55;;;14.90;99.90;;;;;;4999810;28;20789;-73
2023/03/12 01:05:54;;;;;;;4.60;1.75;;;14.90;99.90;;;;;;4999400;28;20399;-73
2023/03/12 01:08:21;;;;;;;5.38;2.00;;;15.00;99.90;;;;;;4980434;28;20422;-73
2023/03/12 01:10:48;;;;;;;4.40;1.60;;;15.10;99.90;;;;;;5015359;28;20419;-73
2023/03/12 01:13:15;;;;;;;6.22;1.80;;;15.10;99.90;;;;;;5018194;28;21070;-73
2023/03/12 01:15:41;;;;;;;5.22;1.70;;;15.10;99.90;;;;;;4999557;28;20426;-73
2023/03/12 01:18:08;;;;;;;5.88;1.80;;;15.00;99.90;;;;;;5016949;28;20795;-73
2023/03/12 01:20:37;;;;;;;7.22;1.85;;;15.10;99.90;;;;;;5017235;28;20456;-73
2023/03/12 01:23:03;;;;;;;7.38;1.80;;;15.10;99.90;;;;;;5018122;28;21066;-73
2023/03/12 01:25:30;;;;;;;4.60;1.58;;;15.10;99.90;;;;;;5001257;28;20503;-73
2023/03/12 01:27:57;;;;;;;4.90;1.60;;;15.10;99.90;;;;;;5001111;28;20481;-73
2023/03/12 01:30:23;;;;;;;8.95;1.80;;;15.10;99.90;;;;;;5000898;28;20419;-73
2023/03/12 01:32:51;;;;;;;4.13;1.67;;;15.10;99.90;;;;;;5000874;28;20431;-72
2023/03/12 01:35:18;;;;;;;8.13;1.70;;;15.10;99.90;;;;;;5017686;28;20422;-73
2023/03/12 01:37:47;;;;;;;3.95;1.60;;;15.10;99.90;;;;;;5017505;28;20429;-73
2023/03/12 01:40:17;;;;;;;3.63;1.45;;;15.10;99.90;;;;;;5017640;28;20452;-72
2023/03/12 01:42:56;;;;;;;4.10;1.58;;;15.10;99.90;;;;;;5016598;28;21026;-72
2023/03/12 01:46:19;;;;;;;4.20;1.60;;;15.10;99.90;;;;;;5018644;28;20475;-73
2023/03/12 01:49:07;;;;;;;4.00;1.40;;;15.10;99.90;;;;;;5014857;28;20418;-73
2023/03/12 01:51:40;;;;;;;3.20;1.30;;;15.20;99.90;;;;;;5015847;28;20427;-73
2023/03/12 01:54:29;;;;;;;5.53;1.60;;;15.30;99.90;;;;;;5018330;28;20411;-73
2023/03/12 01:56:56;;;;;;;3.60;1.30;;;15.30;99.90;;;;;;4999900;28;20468;-73
2023/03/12 01:59:32;;;;;;;3.72;1.30;;;15.30;99.90;;;;;;4999732;28;20453;-74
2023/03/12 02:01:59;;;;;;;6.60;1.40;;;15.30;99.90;;;;;;5001466;28;20500;-72
2023/03/12 02:04:29;;;;;;;4.85;1.40;;;15.30;99.90;;;;;;4999841;28;21054;-73
2023/03/12 02:07:13;;;;;;;2.95;1.33;;;15.30;99.90;;;;;;5016978;28;20988;-73
2023/03/12 02:09:44;;;;;;;3.03;1.38;;;15.30;99.90;;;;;;5000298;28;20422;-73
2023/03/12 02:12:12;;;;;;;2.22;1.13;;;15.30;99.90;;;;;;5019598;28;20798;-73
2023/03/12 02:14:38;;;;;;;3.30;1.20;;;15.20;99.90;;;;;;4985982;28;20410;-73
2023/03/12 02:17:06;;;;;;;4.13;1.25;;;15.20;99.90;;;;;;5000881;28;20415;-72
2023/03/12 02:20:01;;;;;;;2.10;1.27;;;15.10;99.90;;;;;;5000445;28;20419;-72
2023/03/12 02:22:29;;;;;;;2.28;1.00;;;15.00;99.90;;;;;;5000949;28;20410;-72
2023/03/12 02:25:19;;;;;;;3.50;1.30;;;15.00;99.90;;;;;;5018103;28;20430;-73
2023/03/12 02:27:45;;;;;;;2.67;1.40;;;15.00;99.90;;;;;;5018597;28;20426;-73
2023/03/12 02:30:16;;;;;;;3.75;1.30;;;15.00;99.90;;;;;;5002175;28;20425;-73
2023/03/12 02:32:45;;;;;;;2.65;1.27;;;15.10;99.90;;;;;;5016585;28;20434;-73
2023/03/12 02:35:14;;;;;;;3.35;1.20;;;15.00;99.90;;;;;;5017206;28;20472;-73
2023/03/12 02:37:55;;;;;;;2.90;1.30;;;14.90;99.90;;;;;;5015713;28;20450;-73
2023/03/12 02:40:42;;;;;;;5.45;1.40;;;14.90;99.90;;;;;;5016984;28;20418;-73
2023/03/12 02:43:10;;;;;;;3.58;1.30;;;14.80;99.90;;;;;;4999954;28;20508;-72
2023/03/12 02:45:38;;;;;;;3.97;1.50;;;14.80;99.90;;;;;;5018181;28;20430;-72
2023/03/12 02:48:08;;;;;;;3.67;1.50;;;14.70;99.90;;;;;;5015488;28;20418;-72
2023/03/12 02:50:34;;;;;;;5.75;1.30;;;14.60;99.90;;;;;;5017972;28;20414;-73
2023/03/12 02:53:00;;;;;;;2.97;1.23;;;14.70;99.90;;;;;;5001092;28;20426;-73
2023/03/12 02:55:26;;;;;;;4.00;1.55;;;14.80;99.90;;;;;;5012713;28;20736;-73
2023/03/12 02:57:53;;;;;;;5.72;1.50;;;14.80;99.90;;;;;;5014519;28;20417;-73
2023/03/12 03:00:20;;;;;;;4.30;1.33;;;14.90;99.90;;;;;;4981551;28;21265;-73
2023/03/12 03:02:46;;;;;;;4.03;1.50;;;15.00;99.90;;;;;;5020635;28;20425;-73
2023/03/12 03:05:12;;;;;;;5.70;1.30;;;15.00;99.90;;;;;;5022800;28;20411;-73
2023/03/12 03:07:39;;;;;;;4.43;1.40;;;15.10;99.90;;;;;;5003199;28;21274;-73
2023/03/12 03:10:06;;;;;;;3.00;1.33;;;15.20;99.90;;;;;;5022350;28;20414;-73
2023/03/12 03:12:36;;;;;;;3.58;1.30;;;15.20;99.90;;;;;;5001284;28;20413;-73
2023/03/12 03:15:04;;;;;;;5.47;1.50;;;15.10;99.90;;;;;;5021107;28;20976;-73
2023/03/12 03:17:30;;;;;;;4.13;1.37;;;15.10;99.90;;;;;;4987004;28;20411;-73
2023/03/12 03:19:56;;;;;;;4.40;1.55;;;15.10;99.90;;;;;;5020020;28;20934;-73
2023/03/12 03:22:22;;;;;;;5.20;1.55;;;15.10;99.90;;;;;;5003421;28;20415;-73
2023/03/12 03:24:49;;;;;;;4.57;1.58;;;15.10;99.90;;;;;;5003673;28;21051;-73
2023/03/12 03:27:16;;;;;;;6.80;1.60;;;15.10;99.90;;;;;;5021282;28;20418;-73
2023/03/12 03:29:44;;;;;;;3.50;1.35;;;15.10;99.90;;;;;;5003595;28;20505;-73
2023/03/12 03:32:12;;;;;;;4.85;1.55;;;15.20;99.90;;;;;;4997905;28;20415;-73
2023/03/12 03:34:38;;;;;;;5.38;1.50;;;15.10;99.90;;;;;;5004102;28;20415;-73
2023/03/12 03:37:04;;;;;;;4.13;1.50;;;15.10;99.90;;;;;;5005466;28;20409;-73
2023/03/12 03:39:31;;;;;;;5.18;1.60;;;15.10;99.90;;;;;;5019889;28;20394;-73
2023/03/12 03:41:57;;;;;;;6.13;1.83;;;15.10;99.90;;;;;;5006020;28;20438;-73
2023/03/12 03:44:24;;;;;;;4.88;1.70;;;15.10;99.90;;;;;;5023996;28;20469;-73
2023/03/12 03:46:50;;;;;;;6.47;1.60;;;15.20;99.90;;;;;;5003345;28;20614;-73
2023/03/12 03:49:17;;;;;;;5.10;1.48;;;15.20;99.90;;;;;;5021933;28;20426;-73
2023/03/12 03:51:43;;;;;;;8.00;1.80;;;15.20;99.90;;;;;;5001366;28;20418;-74
2023/03/12 03:54:10;;;;;;;5.47;1.75;;;15.20;99.90;;;;;;5021154;28;20854;-73
2023/03/12 03:56:37;;;;;;;4.53;1.67;;;15.20;99.90;;;;;;4988296;28;20545;-73
2023/03/12 03:59:07;;;;;;;5.95;1.80;;;15.30;99.90;;;;;;5002180;28;20418;-73
2023/03/12 04:01:35;;;;;;;5.07;1.73;;;15.20;99.90;;;;;;4999516;28;20413;-73
2023/03/12 04:04:03;;;;;;;4.95;1.52;;;15.30;99.90;;;;;;5020717;28;20476;-73
2023/03/12 04:06:30;;;;;;;4.63;1.50;;;15.20;99.90;;;;;;4998398;28;21186;-73
2023/03/12 04:08:58;;;;;;;3.97;1.42;;;15.20;99.90;;;;;;5018130;28;20439;-73
2023/03/12 04:11:24;;;;;;;3.93;1.23;;;15.20;99.90;;;;;;5017438;28;20509;-73
2023/03/12 04:13:50;;;;;;;3.47;1.50;;;15.30;99.90;;;;;;5001438;28;20448;-73
2023/03/12 04:16:18;;;;;;;3.55;1.40;;;15.30;99.90;;;;;;5021367;28;20779;-73
2023/03/12 04:18:44;;;;;;;3.92;1.20;;;15.30;99.90;;;;;;5015463;28;20454;-73
2023/03/12 04:21:13;;;;;;;3.88;1.30;;;15.30;99.90;;;;;;5003536;28;20508;-73
2023/03/12 04:23:39;;;;;;;6.43;1.50;;;15.30;99.90;;;;;;5019357;28;20862;-73
2023/03/12 04:26:07;;;;;;;3.10;1.13;;;15.40;99.90;;;;;;5020684;28;20411;-73
2023/03/12 04:28:34;;;;;;;7.55;1.42;;;15.40;99.90;;;;;;5003148;28;20842;-73
2023/03/12 04:31:05;;;;;;;4.68;1.40;;;15.40;99.90;;;;;;5021269;28;20423;-73
2023/03/12 04:33:37;;;;;;;4.23;1.50;;;15.40;99.90;;;;;;4987452;28;21013;-73
2023/03/12 04:36:05;;;;;;;3.47;1.30;;;15.40;99.90;;;;;;5002408;28;20565;-73
2023/03/12 04:38:32;;;;;;;4.33;1.23;;;15.40;99.90;;;;;;5003278;28;20406;-73
2023/03/12 04:41:10;;;;;;;2.08;1.20;;;15.40;99.90;;;;;;5017435;28;20538;-73
2023/03/12 04:43:36;;;;;;;3.63;1.20;;;15.50;99.90;;;;;;5001832;28;20419;-73
2023/03/12 04:46:04;;;;;;;3.65;1.30;;;15.50;99.90;;;;;;5019107;28;20864;-73
2023/03/12 04:48:31;;;;;;;3.30;1.30;;;15.50;99.90;;;;;;5022348;28;20494;-73
2023/03/12 04:50:57;;;;;;;3.65;1.33;;;15.60;99.90;;;;;;5001722;28;21489;-73
2023/03/12 04:53:24;;;;;;;4.03;1.17;;;15.60;99.90;;;;;;5019117;28;20407;-73
2023/03/12 04:55:51;;;;;;;4.07;1.27;;;15.60;99.90;;;;;;5018033;28;20975;-73
2023/03/12 04:58:20;;;;;;;5.10;1.40;;;15.60;99.90;;;;;;5001872;28;20918;-73
2023/03/12 05:00:48;;;;;;;4.27;1.10;;;15.60;99.90;;;;;;5017779;28;20448;-73
2023/03/12 05:03:16;;;;;;;5.40;1.30;;;15.60;99.90;;;;;;5000906;28;20451;-73
2023/03/12 05:05:42;;;;;;;3.58;1.30;;;15.70;99.90;;;;;;5017083;28;20477;-73
2023/03/12 05:08:08;;;;;;;4.28;1.20;;;15.70;99.90;;;;;;5017057;28;20914;-73
2023/03/12 05:10:35;;;;;;;2.65;1.05;;;15.70;99.90;;;;;;5001342;28;20407;-73
2023/03/12 05:13:01;;;;;;;2.33;1.00;;;15.70;99.90;;;;;;5016738;28;20424;-73
2023/03/12 05:15:27;;;;;;;3.58;1.33;;;15.70;99.90;;;;;;5017848;28;20411;-73
2023/03/12 05:17:54;;;;;;;3.83;1.20;;;15.70;99.90;;;;;;5015911;28;20821;-73
2023/03/12 05:20:21;;;;;;;2.63;1.00;;;15.80;99.90;;;;;;5001068;28;20410;-73
2023/03/12 05:22:47;;;;;;;4.03;1.10;;;15.90;99.90;;;;;;5016775;28;20415;-73
2023/03/12 05:25:13;;;;;;;4.10;1.02;;;16.00;99.90;;;;;;5021571;28;20419;-73
2023/03/12 05:27:39;;;;;;;3.38;1.15;;;16.20;99.90;;;;;;4984122;28;20411;-73
2023/03/12 05:30:07;;;;;;;4.03;1.17;;;16.20;99.90;;;;;;5000543;28;21805;-73
2023/03/12 05:32:34;;;;;;;4.55;1.10;;;16.30;99.90;;;;;;4985981;28;20411;-73
2023/03/12 05:35:00;;;;;;;3.80;1.10;;;16.40;99.90;;;;;;4984968;28;20771;-73
2023/03/12 05:37:29;;;;;;;3.50;1.20;;;16.60;99.90;;;;;;4997833;28;20472;-73
2023/03/12 05:39:55;;;;;;;5.03;1.20;;;16.70;99.90;;;;;;5018308;28;20512;-73
2023/03/12 05:42:24;;;;;;;2.88;1.00;;;16.70;99.90;;;;;;5018622;28;20841;-73
2023/03/12 05:44:50;;;;;;;3.50;1.10;;;16.70;99.90;;;;;;4984745;28;20439;-73
2023/03/12 05:47:16;;;;;;;4.30;1.27;;;16.70;99.90;;;;;;5000205;28;20980;-73
2023/03/12 05:49:43;;;;;;;4.03;1.02;;;16.60;99.90;;;;;;5020171;28;21215;-73
2023/03/12 05:52:10;;;;;;;3.17;1.15;;;16.60;99.90;;;;;;5014810;28;20427;-73
2023/03/12 05:54:36;;;;;;;4.00;1.05;;;16.50;99.90;;;;;;4999566;28;20407;-73
2023/03/12 05:57:03;;;;;;;4.00;1.10;;;16.50;99.90;;;;;;5018310;28;20457;-73
2023/03/12 05:59:29;;;;;;;4.63;1.17;;;16.50;99.90;;;;;;5018405;28;20431;-73
2023/03/12 06:01:56;;;;;;;4.20;1.13;;;16.60;99.90;;;;;;5016011;28;20419;-73
2023/03/12 06:04:23;;;;;;;3.42;1.00;;;16.60;99.90;;;;;;5020237;28;20419;-73
2023/03/12 06:06:49;;;;;;;2.88;0.90;;;16.60;99.90;;;;;;5018047;28;20534;-73
2023/03/12 06:09:16;;;;;;;2.65;0.93;;;16.60;99.90;;;;;;4998119;28;20865;-73
2023/03/12 06:11:42;;;;;;;2.13;1.08;;;16.60;99.90;;;;;;5014933;28;20425;-73
2023/03/12 06:14:08;;;;;;;2.03;0.80;;;16.60;99.90;;;;;;5019171;28;20419;-74
2023/03/12 06:16:34;;;;;;;3.35;1.10;;;16.70;99.90;;;;;;4998713;28;20874;-73
2023/03/12 06:19:03;;;;;;;4.30;1.10;;;16.60;99.90;;;;;;4998410;28;20530;-73
2023/03/12 06:21:35;;;;;;;2.65;1.15;;;16.70;99.90;;;;;;4999108;28;20411;-73
2023/03/12 06:24:04;;;;;;;3.25;1.00;;;16.70;99.90;;;;;;5015317;28;20547;-73
2023/03/12 06:26:31;;;;;;;3.28;0.93;;;16.70;99.90;;;;;;5017509;28;20777;-73
2023/03/12 06:28:57;;;;;;;2.97;1.00;;;16.80;99.90;;;;;;4999867;28;20418;-73
2023/03/12 06:31:24;;;;;;;4.10;1.10;;;16.80;99.90;;;;;;5016428;28;21180;-73
2023/03/12 06:33:52;;;;;;;3.50;1.10;;;16.80;99.90;;;;;;5018286;28;20486;-73
2023/03/12 06:36:19;;;;;;;2.40;0.90;;;16.90;99.90;;;;;;5016170;28;20407;-73
2023/03/12 06:38:45;;;;;;;4.63;1.10;;;17.00;99.90;;;;;;5000316;28;20418;-73
2023/03/12 06:41:16;;;;;;;3.23;1.10;;;17.00;99.90;;;;;;5015829;28;20976;-73
2023/03/12 06:43:44;;;;;;;3.25;1.20;;;17.10;99.90;;;;;;4998993;28;20421;-73
2023/03/12 06:46:18;;;;;;;4.75;1.17;;;17.10;99.90;;;;;;5019235;28;21037;-73
2023/03/12 06:48:45;;;;;;;3.17;0.80;;;17.20;99.90;;;;;;4995745;28;20415;-73
2023/03/12 06:51:15;;;;;;;2.88;1.20;;;17.20;99.90;;;;;;5018497;28;20427;-73
2023/03/12 06:53:41;;;;;;;2.97;1.25;;;17.20;99.90;;;;;;4998787;28;20407;-74
2023/03/12 06:56:08;;;;;;;3.92;1.30;;;17.20;99.90;;;;;;5017662;28;20426;-73
2023/03/12 06:58:36;;;;;;;2.80;1.10;;;17.30;99.90;;;;;;5002176;28;20495;-73
2023/03/12 07:01:03;;;;;;;6.13;1.30;;;17.30;99.90;;;;;;5017398;28;20422;-73
2023/03/12 07:03:29;;;;;;;3.35;1.15;;;17.30;99.90;;;;;;4981097;28;20501;-73
2023/03/12 07:05:57;;;;;;;4.65;1.20;;;17.30;99.90;;;;;;4997229;28;20422;-73
2023/03/12 07:08:29;;;;;;;3.97;1.30;;;17.40;99.90;;;;;;5016902;28;20755;-73
2023/03/12 07:10:57;;;;;;;3.60;1.20;;;17.40;99.90;;;;;;4982985;28;20425;-73
2023/03/12 07:13:23;;;;;;;6.47;1.52;;;17.50;99.90;;;;;;5019497;28;21176;-73
2023/03/12 07:15:50;;;;;;;5.63;1.15;;;17.60;99.90;;;;;;4999532;28;20407;-73
2023/03/12 07:18:16;;;;;;;4.50;1.20;;;17.70;99.90;;;;;;5017873;28;20439;-73
2023/03/12 07:20:43;;;;;;;3.33;1.30;;;17.80;99.90;;;;;;4998942;28;20410;-73
2023/03/12 07:23:10;;;;;;;4.00;1.42;;;17.80;99.90;;;;;;5016492;28;20491;-73
2023/03/12 07:25:40;;;;;;;3.17;1.30;;;17.80;99.90;;;;;;5002856;28;20419;-73
2023/03/12 07:28:08;;;;;;;4.70;1.30;;;17.90;99.90;;;;;;4997990;28;20418;-73
2023/03/12 07:30:34;;;;;;;3.38;1.30;;;17.80;99.90;;;;;;5000955;28;20439;-74
2023/03/12 07:33:06;;;;;;;4.35;1.40;;;17.90;99.90;;;;;;5015893;28;20427;-73
2023/03/12 07:35:33;;;;;;;2.75;1.20;;;17.90;99.90;;;;;;5013267;28;20904;-73
2023/03/12 07:38:01;;;;;;;4.93;1.50;;;18.10;99.90;;;;;;4999103;28;20414;-73
2023/03/12 07:40:28;;;;;;;7.50;1.40;;;18.10;99.90;;;;;;4996446;28;20414;-73
2023/03/12 07:42:54;;;;;;;3.50;1.23;;;18.20;99.90;;;;;;5013172;28;20422;-73
2023/03/12 07:45:21;;;;;;;4.68;1.40;;;18.20;99.90;;;;;;4995683;28;20467;-73
2023/03/12 07:47:48;;;;;;;7.47;1.80;;;18.20;99.90;;;;;;4995818;28;20419;-73
2023/03/12 07:50:16;;;;;;;5.00;1.35;;;18.30;99.90;;;;;;5005605;28;20422;-73
2023/03/12 07:52:44;;;;;;;6.20;1.60;;;18.20;99.90;;;;;;5004802;28;21119;-74
2023/03/12 07:55:10;;;;;;;8.80;1.50;;;18.20;99.90;;;;;;5023370;28;20448;-73
2023/03/12 07:57:37;;;;;;;7.20;1.70;;;18.30;99.90;;;;;;5001634;28;20880;-70
2023/03/12 08:00:06;;;;;;;6.03;1.60;;;18.30;99.90;;;;;;5020452;28;20410;-71
2023/03/12 08:02:33;;;;;;;5.13;1.48;;;18.40;99.90;;;;;;4999394;28;20403;-71
2023/03/12 08:05:00;;;;;;;7.18;1.65;;;18.70;99.90;;;;;;5000468;28;20457;-70
2023/03/12 08:07:31;;;;;;;5.80;1.50;;;18.60;99.90;;;;;;5005495;28;20987;-70
2023/03/12 08:09:59;;;;;;;6.53;1.50;;;18.30;99.90;;;;;;5006512;28;20468;-70
2023/03/12 08:12:25;;;;;;;3.57;1.30;;;18.20;99.90;;;;;;5020191;28;20414;-70
2023/03/12 08:14:52;;;;;;;6.18;1.70;;;18.30;99.90;;;;;;5002121;28;20826;-70
2023/03/12 08:17:19;;;;;;;5.10;1.50;;;18.00;99.90;;;;;;5019631;28;20414;-70
2023/03/12 08:19:45;;;;;;;6.30;1.52;;;18.10;99.90;;;;;;5022190;28;20504;-71
2023/03/12 08:22:12;;;;;;;6.47;1.60;;;18.20;99.90;;;;;;5024169;28;20415;-70
2023/03/12 08:24:38;;;;;;;9.20;1.75;;;18.10;99.90;;;;;;5005497;28;20410;-71
2023/03/12 08:27:04;;;;;;;9.10;1.80;;;18.10;99.90;;;;;;5021954;28;21507;-72
2023/03/12 08:29:32;;;;;;;9.30;1.98;;;17.90;99.90;;;;;;5019358;28;20423;-72
2023/03/12 08:31:59;;;;;;;6.47;1.95;;;17.80;99.90;;;;;;5002992;28;20430;-72
2023/03/12 08:34:25;;;;;;;8.02;1.95;;;18.00;99.90;;;;;;5023422;28;20509;-71
2023/03/12 08:36:52;;;;;;;6.00;1.60;;;18.50;99.90;;;;;;4986290;28;20418;-71
2023/03/12 08:39:18;;;;;;;7.05;1.88;;;18.70;99.90;;;;;;5001886;28;20853;-71
2023/03/12 08:41:44;;;;;;;7.15;2.10;;;18.90;99.90;;;;;;5002082;28;20411;-71
2023/03/12 08:44:10;;;;;;;7.70;2.22;;;18.90;99.90;;;;;;5017075;28;20485;-71
2023/03/12 08:46:37;;;;;;;6.87;2.50;;;18.20;99.90;;;;;;5011139;28;21439;-72
2023/03/12 08:49:03;;;;;;;6.82;2.30;;;17.80;99.90;;;;;;5005160;28;21074;-72
2023/03/12 08:51:29;;;;;;;6.60;2.20;;;17.90;99.90;;;;;;4985829;28;20419;-72
2023/03/12 08:53:56;;;;;;;9.45;2.70;;;17.60;99.90;;;;;;4992187;28;20426;-70
2023/03/12 08:56:22;;;;;;;8.20;3.03;;;17.50;99.90;;;;;;5009273;28;20419;-71
2023/03/12 08:58:48;;;;;;;8.52;3.33;;;17.40;99.90;;;;;;5020688;28;20415;-71
2023/03/12 09:01:15;;;;;;;8.38;3.10;;;17.30;99.90;;;;;;5016311;28;20415;-71
2023/03/12 09:03:41;;;;;;;7.28;2.90;;;17.10;99.90;;;;;;5019593;28;20476;-70
2023/03/12 09:06:14;;;;;;;7.38;2.83;;;16.90;99.90;;;;;;5018116;28;20426;-70
2023/03/12 09:08:42;;;;;;;12.60;2.85;;;16.80;99.90;;;;;;5004751;28;20417;-71
2023/03/12 09:11:10;;;;;;;11.50;4.43;;;16.80;99.90;;;;;;5012080;28;22332;-71
2023/03/12 09:13:37;;;;;;;13.90;4.97;;;16.80;99.90;;;;;;5002811;28;20415;-71
2023/03/12 09:16:05;;;;;;;14.75;4.45;;;16.80;99.90;;;;;;5005369;28;20422;-71
2023/03/12 09:18:33;;;;;;;10.48;3.95;;;16.80;99.90;;;;;;5005076;28;20461;-71
2023/03/12 09:21:00;;;;;;;9.63;3.90;;;16.90;99.90;;;;;;5020124;28;20415;-71
2023/03/12 09:23:28;;;;;;;13.10;4.40;;;16.80;99.90;;;;;;5019347;28;20580;-71
2023/03/12 09:25:56;;;;;;;11.02;4.53;;;16.80;99.90;;;;;;5001821;28;20545;-71
2023/03/12 09:28:22;;;;;;;12.63;4.47;;;16.90;99.90;;;;;;5013156;28;20414;-71
2023/03/12 09:30:51;;;;;;;13.98;5.20;;;16.90;99.90;;;;;;5011886;28;20472;-71
2023/03/12 09:33:18;;;;;;;14.23;5.10;;;16.80;99.90;;;;;;5013531;28;20469;-71
2023/03/12 09:35:44;;;;;;;15.48;5.53;;;17.20;99.90;;;;;;5016390;28;20409;-72
2023/03/12 09:38:14;;;;;;;13.70;5.60;;;17.30;99.90;;;;;;5017687;28;20417;-71
2023/03/12 09:40:46;;;;;;;13.18;5.43;;;17.30;99.90;;;;;;5021032;28;20481;-71
2023/03/12 09:43:21;;;;;;;14.15;6.18;;;17.30;99.90;;;;;;5017906;28;20415;-71
2023/03/12 09:45:50;;;;;;;20.17;6.70;;;17.30;99.90;;;;;;5017711;28;20423;-71
2023/03/12 09:48:36;;;;;;;14.40;6.47;;;17.30;99.90;;;;;;4999381;28;20790;-71
2023/03/12 09:51:42;;;;;;;13.27;6.00;;;17.30;99.90;;;;;;5019201;28;20435;-71
2023/03/12 09:54:44;;;;;;;19.58;6.70;;;17.40;99.90;;;;;;5000638;28;20423;-71
2023/03/12 09:57:30;;;;;;;13.55;6.50;;;17.60;99.90;;;;;;5002496;28;20487;-71
2023/03/12 09:59:57;;;;;;;20.02;7.43;;;17.50;99.90;;;;;;5008732;28;20411;-71
2023/03/12 10:03:11;;;;;;;15.98;6.60;;;17.50;99.90;;;;;;4996125;28;21198;-71
2023/03/12 10:05:44;;;;;;;21.92;6.78;;;17.40;99.90;;;;;;5001956;28;20918;-71
2023/03/12 10:08:59;;;;;;;18.38;7.60;;;17.50;99.90;;;;;;5015441;28;20419;-71
2023/03/12 10:12:12;;;;;;;19.58;8.27;;;17.50;99.90;;;;;;4936920;28;20422;-71
2023/03/12 10:14:59;;;;;;;20.40;7.22;;;17.50;99.90;;;;;;4938367;29;20425;-71
2023/03/12 10:17:43;;;;;;;16.05;6.95;;;17.60;99.90;;;;;;4998239;28;20410;-71
2023/03/12 10:20:31;;;;;;;16.02;7.70;;;17.50;99.90;;;;;;5001312;28;20415;-71
2023/03/12 10:23:30;;;;;;;22.50;8.43;;;17.50;99.90;;;;;;5019564;28;20487;-71
2023/03/12 10:26:30;;;;;;;17.15;8.90;;;17.50;99.90;;;;;;5015196;28;20426;-71
2023/03/12 10:29:08;;;;;;;23.70;10.30;;;17.40;99.90;;;;;;5000817;28;21023;-71
2023/03/12 10:32:03;;;;;;;21.75;11.38;;;17.30;99.90;;;;;;5020808;28;20417;-71
2023/03/12 10:34:49;;;;;;;20.67;9.65;;;17.30;99.90;;;;;;5017123;28;20469;-71
2023/03/12 10:37:57;;;;;;;18.93;9.63;;;17.30;99.90;;;;;;4998228;28;20970;-71
2023/03/12 10:40:33;;;;;;;17.73;8.85;;;16.90;99.90;;;;;;5018114;28;20430;-71
2023/03/12 10:43:05;;;;;;;16.13;8.10;;;17.10;99.90;;;;;;5000117;28;20778;-71
2023/03/12 10:46:09;;;;;;;21.83;10.98;;;17.50;99.90;;;;;;4998130;28;20495;-71
2023/03/12 10:48:35;;;;;;;23.92;12.73;;;17.80;99.90;;;;;;5001160;28;20427;-71
2023/03/12 10:51:08;;;;;;;18.98;11.15;;;18.00;99.90;;;;;;5015806;28;20428;-71
2023/03/12 10:53:41;;;;;;;17.70;9.27;;;18.00;99.90;;;;;;5018584;28;20436;-71
2023/03/12 10:56:21;;;;;;;20.83;9.80;;;17.80;99.90;;;;;;5013901;28;20782;-71
2023/03/12 10:58:51;;;;;;;19.30;9.63;;;17.90;99.90;;;;;;5013976;28;21328;-71
2023/03/12 11:01:29;;;;;;;19.08;9.35;;;17.90;99.90;;;;;;5003591;28;21029;-71
2023/03/12 11:04:19;;;;;;;22.38;9.30;;;18.10;99.90;;;;;;4999444;28;20426;-71
2023/03/12 11:07:18;;;;;;;16.60;8.98;;;18.30;99.90;;;;;;5000150;28;20494;-71
2023/03/12 11:09:45;;;;;;;18.17;9.10;;;18.30;99.90;;;;;;4999566;28;20828;-71
2023/03/12 11:12:33;;;;;;;19.60;9.40;;;18.20;99.90;;;;;;5002005;28;20914;-71
2023/03/12 11:15:22;;;;;;;22.48;10.75;;;18.10;99.90;;;;;;5020461;28;20411;-71
2023/03/12 11:17:48;;;;;;;20.10;9.73;;;18.20;99.90;;;;;;5002299;28;20831;-71
2023/03/12 11:20:33;;;;;;;21.55;9.25;;;18.30;99.90;;;;;;5017753;28;20431;-71
2023/03/12 11:23:30;;;;;;;22.15;9.32;;;18.30;99.90;;;;;;5006650;28;20414;-71
2023/03/12 11:26:03;;;;;;;21.20;10.15;;;18.40;99.90;;;;;;5021663;28;20419;-73
2023/03/12 11:28:45;;;;;;;18.53;8.60;;;18.40;99.90;;;;;;5005580;28;21015;-71
2023/03/12 11:31:35;;;;;;;18.85;9.02;;;18.30;99.90;;;;;;5020560;28;20497;-72
2023/03/12 11:34:25;;;;;;;21.92;9.18;;;18.30;99.90;;;;;;5005540;28;20410;-71
2023/03/12 11:37:30;;;;;;;19.45;9.05;;;18.20;99.90;;;;;;5023335;28;20479;-71
2023/03/12 11:40:24;;;;;;;23.17;9.65;;;18.10;99.90;;;;;;5021552;28;20411;-71
2023/03/12 11:43:14;;;;;;;19.23;9.27;;;17.90;99.90;;;;;;5022646;28;20419;-71
2023/03/12 11:46:13;;;;;;;17.67;8.90;;;17.80;99.90;;;;;;5021160;28;20504;-71
2023/03/12 11:48:57;;;;;;;19.45;9.02;;;17.90;99.90;;;;;;5002593;28;20468;-71
2023/03/12 11:51:46;;;;;;;18.05;8.48;;;18.10;99.90;;;;;;5002794;28;20481;-71
2023/03/12 11:54:37;;;;;;;20.67;8.60;;;18.20;99.90;;;;;;5023524;28;21111;-72
2023/03/12 11:57:49;;;;;;;23.88;8.95;;;18.30;99.90;;;;;;5016397;28;21177;-72
2023/03/12 12:00:45;;;;;;;20.63;8.20;;;18.10;99.90;;;;;;4986523;28;20949;-72
2023/03/12 12:04:05;;;;;;;21.98;8.70;;;18.10;99.90;;;;;;5019965;28;20774;-72
2023/03/12 12:06:51;;;;;;;22.70;8.68;;;18.10;99.90;;;;;;4951592;28;20459;-71
2023/03/12 12:10:00;;;;;;;23.45;8.50;;;18.00;99.90;;;;;;5022459;28;20411;-72
2023/03/12 12:12:32;;;;;;;21.20;8.33;;;17.80;99.90;;;;;;5002496;28;20473;-71
2023/03/12 12:15:19;;;;;;;21.38;8.98;;;17.60;99.90;;;;;;5025156;28;20477;-71
2023/03/12 12:18:10;;;;;;;19.33;8.43;;;17.60;99.90;;;;;;5021566;28;20422;-72
2023/03/12 12:20:45;;;;;;;16.42;8.63;;;17.50;99.90;;;;;;5019931;28;20825;-72
2023/03/12 12:23:25;;;;;;;22.85;9.55;;;17.70;99.90;;;;;;5024408;28;21195;-71
2023/03/12 12:26:12;;;;;;;20.20;9.90;;;17.60;99.90;;;;;;5017989;28;20419;-71
2023/03/12 12:29:02;;;;;;;20.37;9.30;;;17.70;99.90;;;;;;5019277;28;20806;-71
2023/03/12 12:31:55;;;;;;;20.65;8.85;;;17.60;99.90;;;;;;5018703;28;20444;-72
2023/03/12 12:34:52;;;;;;;24.15;9.20;;;17.60;99.90;;;;;;5001742;28;20492;-71
2023/03/12 12:37:42;;;;;;;20.83;8.48;;;17.60;99.90;;;;;;5019012;28;20517;-71
2023/03/12 12:40:36;;;;;;;25.17;9.50;;;17.60;99.90;;;;;;5006665;28;20407;-72
2023/03/12 12:43:50;;;;;;;20.47;9.00;;;17.70;99.90;;;;;;5021674;28;20438;-71
2023/03/12 12:46:24;;;;;;;20.23;8.73;;;17.80;99.90;;;;;;5021609;28;20425;-71
2023/03/12 12:48:59;;;;;;;20.40;8.90;;;17.70;99.90;;;;;;5018231;28;20990;-72
2023/03/12 12:51:34;;;;;;;22.05;9.20;;;17.60;99.90;;;;;;5021637;28;20422;-71
2023/03/12 12:54:36;;;;;;;23.67;9.20;;;17.60;99.90;;;;;;5022306;28;20777;-71
2023/03/12 12:57:17;;;;;;;26.30;8.88;;;17.70;99.90;;;;;;5021436;28;20422;-72
2023/03/12 13:00:34;;;;;;;26.83;9.77;;;17.50;99.90;;;;;;5022368;28;20806;-71
2023/03/12 13:03:00;;;;;;;20.92;9.30;;;17.30;99.90;;;;;;4991739;28;20481;-71
2023/03/12 13:05:52;;;;;;;23.80;9.97;;;17.20;99.90;;;;;;5001931;28;20418;-72
2023/03/12 13:08:54;;;;;;;28.00;10.13;;;17.20;99.90;;;;;;5019324;28;20434;-72
2023/03/12 13:11:39;;;;;;;27.10;9.82;;;17.20;99.90;;;;;;4972006;28;20510;-72
2023/03/12 13:14:08;;;;;;;38.50;10.77;;;17.20;99.90;;;;;;5021129;28;20877;-72